Terminal Aerodrome Forecast
Issued by NWS

Current Version | Previous Version | Graphics & Text | Print | Product List | Glossary On
Versions: 1 2 3 4 5 6 7 8 9 10 11 12 13 14 15 16 17
000
FTUS41 KRNK 220859 AAC
TAFLWB
TAF AMD
KLWB 220859Z 2209/2306 VRB03KT 5SM BR SCT001 BKN250
      TEMPO 2209/2212 2SM BR OVC001
     FM221330 VRB03KT P6SM SCT250
     FM221700 29004KT P6SM SCT060 BKN250=

USA.gov is the U.S. government's official web portal to all federal, state and local government web resources and services.